sensor_id;sensor_type;location;lat;lon;timestamp;P1;durP1;ratioP1;P2;durP2;ratioP2
75112;SDS011;63692;47.338;8.520;2022-12-08T05:30:14;21.13;;;11.70;;
75112;SDS011;63692;47.338;8.520;2022-12-08T05:32:39;24.17;;;13.57;;
75112;SDS011;63692;47.338;8.520;2022-12-08T05:35:05;24.50;;;12.57;;
75112;SDS011;63692;47.338;8.520;2022-12-08T05:42:34;26.27;;;12.98;;
75112;SDS011;63692;47.338;8.520;2022-12-08T05:52:23;28.70;;;13.57;;
75112;SDS011;63692;47.338;8.520;2022-12-08T05:54:49;26.88;;;14.15;;
75112;SDS011;63692;47.338;8.520;2022-12-08T05:57:15;25.00;;;14.15;;
75112;SDS011;63692;47.338;8.520;2022-12-08T05:59:41;26.10;;;13.25;;
75112;SDS011;63692;47.338;8.520;2022-12-08T06:02:06;23.17;;;12.63;;
75112;SDS011;63692;47.338;8.520;2022-12-08T06:07:00;25.42;;;13.48;;
75112;SDS011;63692;47.338;8.520;2022-12-08T06:09:26;23.63;;;12.90;;
75112;SDS011;63692;47.338;8.520;2022-12-08T06:11:51;23.15;;;12.85;;
75112;SDS011;63692;47.338;8.520;2022-12-08T06:14:18;25.08;;;13.90;;
75112;SDS011;63692;47.338;8.520;2022-12-08T06:16:43;22.92;;;12.40;;
75112;SDS011;63692;47.338;8.520;2022-12-08T06:19:09;23.88;;;13.80;;
75112;SDS011;63692;47.338;8.520;2022-12-08T06:21:34;23.70;;;12.60;;
75112;SDS011;63692;47.338;8.520;2022-12-08T06:24:00;31.13;;;13.18;;
75112;SDS011;63692;47.338;8.520;2022-12-08T06:26:26;24.42;;;12.73;;
75112;SDS011;63692;47.338;8.520;2022-12-08T06:28:52;27.52;;;13.40;;
75112;SDS011;63692;47.338;8.520;2022-12-08T06:31:19;26.15;;;12.77;;
75112;SDS011;63692;47.338;8.520;2022-12-08T06:33:47;23.90;;;13.13;;
75112;SDS011;63692;47.338;8.520;2022-12-08T06:36:13;25.40;;;12.80;;
75112;SDS011;63692;47.338;8.520;2022-12-08T06:38:40;25.40;;;12.90;;
75112;SDS011;63692;47.338;8.520;2022-12-08T06:41:06;24.35;;;13.07;;
75112;SDS011;63692;47.338;8.520;2022-12-08T06:43:32;24.60;;;12.68;;
75112;SDS011;63692;47.338;8.520;2022-12-08T06:45:58;26.35;;;12.93;;
75112;SDS011;63692;47.338;8.520;2022-12-08T06:48:24;26.13;;;13.35;;
75112;SDS011;63692;47.338;8.520;2022-12-08T06:50:50;26.73;;;12.82;;
75112;SDS011;63692;47.338;8.520;2022-12-08T07:03:14;23.50;;;12.63;;
75112;SDS011;63692;47.338;8.520;2022-12-08T07:05:40;23.70;;;13.05;;
75112;SDS011;63692;47.338;8.520;2022-12-08T07:23:33;27.33;;;14.73;;
75112;SDS011;63692;47.338;8.520;2022-12-08T07:26:00;25.65;;;13.88;;
75112;SDS011;63692;47.338;8.520;2022-12-08T07:28:27;24.80;;;13.40;;
75112;SDS011;63692;47.338;8.520;2022-12-08T07:30:56;27.33;;;14.07;;
75112;SDS011;63692;47.338;8.520;2022-12-08T07:33:22;28.45;;;14.10;;
75112;SDS011;63692;47.338;8.520;2022-12-08T07:35:59;27.00;;;13.25;;
75112;SDS011;63692;47.338;8.520;2022-12-08T07:40:54;24.08;;;12.68;;
75112;SDS011;63692;47.338;8.520;2022-12-08T07:43:20;26.50;;;13.32;;
75112;SDS011;63692;47.338;8.520;2022-12-08T07:45:47;27.33;;;13.60;;
75112;SDS011;63692;47.338;8.520;2022-12-08T07:48:13;26.30;;;13.50;;
75112;SDS011;63692;47.338;8.520;2022-12-08T07:50:39;24.50;;;12.70;;
75112;SDS011;63692;47.338;8.520;2022-12-08T07:53:05;26.20;;;13.77;;
75112;SDS011;63692;47.338;8.520;2022-12-08T07:55:31;26.15;;;13.80;;
75112;SDS011;63692;47.338;8.520;2022-12-08T07:57:57;25.65;;;13.48;;
75112;SDS011;63692;47.338;8.520;2022-12-08T08:00:23;26.50;;;14.35;;
75112;SDS011;63692;47.338;8.520;2022-12-08T08:05:16;27.08;;;13.95;;
75112;SDS011;63692;47.338;8.520;2022-12-08T08:07:42;26.00;;;13.13;;
75112;SDS011;63692;47.338;8.520;2022-12-08T08:10:09;24.83;;;13.32;;
75112;SDS011;63692;47.338;8.520;2022-12-08T08:19:58;25.02;;;13.05;;
75112;SDS011;63692;47.338;8.520;2022-12-08T08:22:25;24.17;;;13.50;;
75112;SDS011;63692;47.338;8.520;2022-12-08T08:24:51;26.23;;;13.35;;
75112;SDS011;63692;47.338;8.520;2022-12-08T08:27:17;28.05;;;13.48;;
75112;SDS011;63692;47.338;8.520;2022-12-08T08:29:43;32.65;;;13.23;;
75112;SDS011;63692;47.338;8.520;2022-12-08T08:32:09;26.77;;;13.93;;
75112;SDS011;63692;47.338;8.520;2022-12-08T08:34:35;25.48;;;13.75;;
75112;SDS011;63692;47.338;8.520;2022-12-08T08:37:00;27.63;;;14.27;;
75112;SDS011;63692;47.338;8.520;2022-12-08T08:39:26;27.63;;;14.95;;
75112;SDS011;63692;47.338;8.520;2022-12-08T08:41:54;27.17;;;14.40;;
75112;SDS011;63692;47.338;8.520;2022-12-08T08:44:19;29.40;;;14.10;;
75112;SDS011;63692;47.338;8.520;2022-12-08T08:46:45;22.52;;;12.50;;
75112;SDS011;63692;47.338;8.520;2022-12-08T08:49:10;26.35;;;13.48;;
75112;SDS011;63692;47.338;8.520;2022-12-08T08:51:36;25.30;;;13.65;;
75112;SDS011;63692;47.338;8.520;2022-12-08T08:54:02;25.50;;;14.38;;
75112;SDS011;63692;47.338;8.520;2022-12-08T08:56:27;29.92;;;15.30;;
75112;SDS011;63692;47.338;8.520;2022-12-08T08:58:53;30.48;;;14.85;;
75112;SDS011;63692;47.338;8.520;2022-12-08T09:01:22;38.55;;;16.77;;
75112;SDS011;63692;47.338;8.520;2022-12-08T09:03:50;24.63;;;13.55;;
75112;SDS011;63692;47.338;8.520;2022-12-08T09:06:15;23.17;;;13.13;;
75112;SDS011;63692;47.338;8.520;2022-12-08T09:08:42;27.08;;;15.05;;
75112;SDS011;63692;47.338;8.520;2022-12-08T09:11:08;28.05;;;14.55;;
75112;SDS011;63692;47.338;8.520;2022-12-08T09:13:34;29.55;;;16.13;;
75112;SDS011;63692;47.338;8.520;2022-12-08T09:16:00;28.58;;;15.05;;
75112;SDS011;63692;47.338;8.520;2022-12-08T09:58:33;31.92;;;16.35;;
75112;SDS011;63692;47.338;8.520;2022-12-08T10:01:11;30.10;;;16.45;;
75112;SDS011;63692;47.338;8.520;2022-12-08T10:03:37;35.10;;;16.23;;
75112;SDS011;63692;47.338;8.520;2022-12-08T10:14:42;29.63;;;15.95;;
75112;SDS011;63692;47.338;8.520;2022-12-08T10:17:25;33.30;;;15.82;;
75112;SDS011;63692;47.338;8.520;2022-12-08T10:19:59;36.97;;;17.17;;
75112;SDS011;63692;47.338;8.520;2022-12-08T10:22:30;29.95;;;16.48;;
75112;SDS011;63692;47.338;8.520;2022-12-08T10:25:08;36.88;;;17.83;;
75112;SDS011;63692;47.338;8.520;2022-12-08T10:27:43;31.67;;;17.20;;
75112;SDS011;63692;47.338;8.520;2022-12-08T10:30:14;35.80;;;16.60;;
75112;SDS011;63692;47.338;8.520;2022-12-08T10:35:10;33.13;;;15.88;;
75112;SDS011;63692;47.338;8.520;2022-12-08T10:40:12;30.45;;;17.00;;
75112;SDS011;63692;47.338;8.520;2022-12-08T10:42:47;30.92;;;16.17;;
75112;SDS011;63692;47.338;8.520;2022-12-08T10:45:19;32.03;;;16.35;;
75112;SDS011;63692;47.338;8.520;2022-12-08T10:50:34;28.70;;;15.43;;
75112;SDS011;63692;47.338;8.520;2022-12-08T10:58:31;27.50;;;14.70;;
75112;SDS011;63692;47.338;8.520;2022-12-08T11:01:13;25.50;;;13.95;;
75112;SDS011;63692;47.338;8.520;2022-12-08T11:03:53;26.80;;;13.32;;
75112;SDS011;63692;47.338;8.520;2022-12-08T11:11:54;23.00;;;13.55;;
75112;SDS011;63692;47.338;8.520;2022-12-08T11:16:54;20.30;;;12.05;;
75112;SDS011;63692;47.338;8.520;2022-12-08T11:19:35;23.13;;;13.20;;
75112;SDS011;63692;47.338;8.520;2022-12-08T11:22:25;23.00;;;13.55;;
75112;SDS011;63692;47.338;8.520;2022-12-08T11:27:42;21.67;;;12.32;;
75112;SDS011;63692;47.338;8.520;2022-12-08T11:32:56;20.77;;;11.98;;
75112;SDS011;63692;47.338;8.520;2022-12-08T11:35:26;22.83;;;12.27;;
75112;SDS011;63692;47.338;8.520;2022-12-08T11:38:01;21.33;;;11.55;;
75112;SDS011;63692;47.338;8.520;2022-12-08T11:40:36;22.13;;;12.05;;
75112;SDS011;63692;47.338;8.520;2022-12-08T11:45:35;21.90;;;11.70;;
75112;SDS011;63692;47.338;8.520;2022-12-08T11:58:12;24.10;;;12.52;;
75112;SDS011;63692;47.338;8.520;2022-12-08T12:01:24;21.42;;;11.55;;
75112;SDS011;63692;47.338;8.520;2022-12-08T12:12:16;28.08;;;13.60;;
75112;SDS011;63692;47.338;8.520;2022-12-08T12:17:51;21.65;;;12.32;;
75112;SDS011;63692;47.338;8.520;2022-12-08T12:20:29;21.25;;;11.60;;
75112;SDS011;63692;47.338;8.520;2022-12-08T12:23:03;23.08;;;12.77;;
75112;SDS011;63692;47.338;8.520;2022-12-08T12:25:32;23.63;;;12.70;;
75112;SDS011;63692;47.338;8.520;2022-12-08T12:28:01;22.65;;;11.93;;
75112;SDS011;63692;47.338;8.520;2022-12-08T12:30:48;21.48;;;12.30;;
75112;SDS011;63692;47.338;8.520;2022-12-08T12:33:15;25.13;;;12.98;;
75112;SDS011;63692;47.338;8.520;2022-12-08T12:35:43;22.60;;;13.05;;
75112;SDS011;63692;47.338;8.520;2022-12-08T12:40:39;22.60;;;12.77;;
75112;SDS011;63692;47.338;8.520;2022-12-08T12:45:36;23.08;;;12.43;;
75112;SDS011;63692;47.338;8.520;2022-12-08T13:06:38;20.98;;;11.57;;
75112;SDS011;63692;47.338;8.520;2022-12-08T13:09:12;22.13;;;11.77;;
75112;SDS011;63692;47.338;8.520;2022-12-08T13:11:47;22.25;;;11.15;;
75112;SDS011;63692;47.338;8.520;2022-12-08T13:14:23;25.40;;;11.82;;
75112;SDS011;63692;47.338;8.520;2022-12-08T13:16:55;20.33;;;11.00;;
75112;SDS011;63692;47.338;8.520;2022-12-08T13:19:22;21.17;;;11.40;;
75112;SDS011;63692;47.338;8.520;2022-12-08T13:21:49;22.17;;;11.38;;
75112;SDS011;63692;47.338;8.520;2022-12-08T13:24:26;21.55;;;11.35;;
75112;SDS011;63692;47.338;8.520;2022-12-08T13:29:33;19.67;;;11.20;;
75112;SDS011;63692;47.338;8.520;2022-12-08T13:32:03;19.33;;;11.25;;
75112;SDS011;63692;47.338;8.520;2022-12-08T13:34:50;18.55;;;10.43;;
75112;SDS011;63692;47.338;8.520;2022-12-08T13:37:23;17.92;;;10.52;;
75112;SDS011;63692;47.338;8.520;2022-12-08T13:39:51;19.27;;;10.35;;
75112;SDS011;63692;47.338;8.520;2022-12-08T13:42:23;20.23;;;11.30;;
75112;SDS011;63692;47.338;8.520;2022-12-08T13:47:59;21.05;;;11.38;;
75112;SDS011;63692;47.338;8.520;2022-12-08T13:50:41;18.73;;;11.17;;
75112;SDS011;63692;47.338;8.520;2022-12-08T13:53:32;20.27;;;11.50;;
75112;SDS011;63692;47.338;8.520;2022-12-08T13:56:03;20.65;;;11.70;;
75112;SDS011;63692;47.338;8.520;2022-12-08T13:58:34;21.35;;;11.50;;
75112;SDS011;63692;47.338;8.520;2022-12-08T14:03:57;21.42;;;11.18;;
75112;SDS011;63692;47.338;8.520;2022-12-08T14:06:28;19.65;;;10.95;;
75112;SDS011;63692;47.338;8.520;2022-12-08T14:08:59;21.05;;;11.00;;
75112;SDS011;63692;47.338;8.520;2022-12-08T14:11:30;20.38;;;10.85;;
75112;SDS011;63692;47.338;8.520;2022-12-08T14:14:11;19.15;;;10.80;;
75112;SDS011;63692;47.338;8.520;2022-12-08T14:16:41;23.52;;;11.13;;
75112;SDS011;63692;47.338;8.520;2022-12-08T14:19:23;21.38;;;11.52;;
75112;SDS011;63692;47.338;8.520;2022-12-08T14:22:12;22.55;;;11.50;;
75112;SDS011;63692;47.338;8.520;2022-12-08T14:24:43;19.00;;;10.48;;
75112;SDS011;63692;47.338;8.520;2022-12-08T14:27:11;22.13;;;11.65;;
75112;SDS011;63692;47.338;8.520;2022-12-08T14:29:52;23.38;;;11.70;;
75112;SDS011;63692;47.338;8.520;2022-12-08T14:37:44;23.13;;;12.45;;
75112;SDS011;63692;47.338;8.520;2022-12-08T14:40:18;23.55;;;12.43;;
75112;SDS011;63692;47.338;8.520;2022-12-08T14:42:52;21.65;;;11.73;;
75112;SDS011;63692;47.338;8.520;2022-12-08T14:45:29;20.05;;;11.77;;
75112;SDS011;63692;47.338;8.520;2022-12-08T14:48:16;19.65;;;11.85;;
75112;SDS011;63692;47.338;8.520;2022-12-08T14:56:05;23.95;;;11.90;;
75112;SDS011;63692;47.338;8.520;2022-12-08T14:58:32;19.60;;;10.93;;
75112;SDS011;63692;47.338;8.520;2022-12-08T15:00:58;22.98;;;11.07;;
75112;SDS011;63692;47.338;8.520;2022-12-08T15:03:26;18.60;;;11.35;;
75112;SDS011;63692;47.338;8.520;2022-12-08T15:05:55;23.13;;;12.15;;
75112;SDS011;63692;47.338;8.520;2022-12-08T15:08:22;21.33;;;11.52;;
75112;SDS011;63692;47.338;8.520;2022-12-08T15:13:41;21.90;;;11.15;;
75112;SDS011;63692;47.338;8.520;2022-12-08T15:19:03;21.85;;;11.25;;
75112;SDS011;63692;47.338;8.520;2022-12-08T15:21:41;23.00;;;11.82;;
75112;SDS011;63692;47.338;8.520;2022-12-08T15:24:10;24.88;;;12.25;;
75112;SDS011;63692;47.338;8.520;2022-12-08T15:26:46;23.80;;;12.20;;
75112;SDS011;63692;47.338;8.520;2022-12-08T15:29:23;25.05;;;12.45;;
75112;SDS011;63692;47.338;8.520;2022-12-08T15:31:51;21.70;;;11.73;;
75112;SDS011;63692;47.338;8.520;2022-12-08T15:34:19;25.80;;;11.90;;
75112;SDS011;63692;47.338;8.520;2022-12-08T15:36:45;26.25;;;11.95;;
75112;SDS011;63692;47.338;8.520;2022-12-08T15:39:24;23.27;;;12.43;;
75112;SDS011;63692;47.338;8.520;2022-12-08T15:42:00;27.55;;;14.02;;
75112;SDS011;63692;47.338;8.520;2022-12-08T15:46:54;26.13;;;12.15;;
75112;SDS011;63692;47.338;8.520;2022-12-08T15:49:21;22.85;;;12.20;;
75112;SDS011;63692;47.338;8.520;2022-12-08T15:51:48;24.70;;;12.82;;
75112;SDS011;63692;47.338;8.520;2022-12-08T15:54:15;23.73;;;12.82;;
75112;SDS011;63692;47.338;8.520;2022-12-08T15:56:51;26.10;;;13.35;;
75112;SDS011;63692;47.338;8.520;2022-12-08T15:59:20;28.40;;;14.07;;
75112;SDS011;63692;47.338;8.520;2022-12-08T16:01:47;31.30;;;14.27;;
75112;SDS011;63692;47.338;8.520;2022-12-08T16:04:14;29.92;;;14.05;;
75112;SDS011;63692;47.338;8.520;2022-12-08T16:06:42;28.35;;;12.98;;
75112;SDS011;63692;47.338;8.520;2022-12-08T16:09:13;28.52;;;14.55;;
75112;SDS011;63692;47.338;8.520;2022-12-08T16:11:39;30.52;;;14.35;;
75112;SDS011;63692;47.338;8.520;2022-12-08T16:14:24;31.05;;;15.45;;
75112;SDS011;63692;47.338;8.520;2022-12-08T16:16:49;31.00;;;15.35;;
75112;SDS011;63692;47.338;8.520;2022-12-08T16:19:15;31.88;;;15.00;;
75112;SDS011;63692;47.338;8.520;2022-12-08T16:21:41;31.00;;;15.32;;
75112;SDS011;63692;47.338;8.520;2022-12-08T16:24:06;28.10;;;14.45;;
75112;SDS011;63692;47.338;8.520;2022-12-08T16:26:32;34.28;;;14.90;;
75112;SDS011;63692;47.338;8.520;2022-12-08T16:28:57;31.58;;;16.60;;
75112;SDS011;63692;47.338;8.520;2022-12-08T16:31:23;27.23;;;14.63;;
75112;SDS011;63692;47.338;8.520;2022-12-08T16:33:49;28.70;;;14.57;;
75112;SDS011;63692;47.338;8.520;2022-12-08T16:36:14;30.23;;;15.50;;
75112;SDS011;63692;47.338;8.520;2022-12-08T16:38:40;31.40;;;15.32;;
75112;SDS011;63692;47.338;8.520;2022-12-08T16:41:05;27.95;;;14.52;;
75112;SDS011;63692;47.338;8.520;2022-12-08T16:43:54;26.83;;;14.32;;
75112;SDS011;63692;47.338;8.520;2022-12-08T16:46:24;33.58;;;15.88;;
75112;SDS011;63692;47.338;8.520;2022-12-08T16:48:51;31.50;;;15.48;;
75112;SDS011;63692;47.338;8.520;2022-12-08T16:51:17;33.60;;;15.82;;
75112;SDS011;63692;47.338;8.520;2022-12-08T16:53:44;33.22;;;15.63;;
75112;SDS011;63692;47.338;8.520;2022-12-08T16:56:13;29.95;;;14.82;;
75112;SDS011;63692;47.338;8.520;2022-12-08T16:58:44;30.70;;;15.55;;
75112;SDS011;63692;47.338;8.520;2022-12-08T17:01:14;28.67;;;15.05;;
75112;SDS011;63692;47.338;8.520;2022-12-08T17:03:42;32.28;;;16.35;;
75112;SDS011;63692;47.338;8.520;2022-12-08T17:06:11;33.40;;;16.40;;
75112;SDS011;63692;47.338;8.520;2022-12-08T17:08:40;30.08;;;15.27;;
75112;SDS011;63692;47.338;8.520;2022-12-08T17:11:06;31.85;;;15.57;;
75112;SDS011;63692;47.338;8.520;2022-12-08T17:13:36;33.63;;;15.07;;
75112;SDS011;63692;47.338;8.520;2022-12-08T17:18:32;28.95;;;14.77;;
75112;SDS011;63692;47.338;8.520;2022-12-08T17:20:57;26.98;;;13.82;;
75112;SDS011;63692;47.338;8.520;2022-12-08T17:23:23;25.80;;;13.95;;
75112;SDS011;63692;47.338;8.520;2022-12-08T17:25:58;31.08;;;14.30;;
75112;SDS011;63692;47.338;8.520;2022-12-08T17:28:25;29.55;;;15.18;;
75112;SDS011;63692;47.338;8.520;2022-12-08T17:30:51;26.92;;;13.90;;
75112;SDS011;63692;47.338;8.520;2022-12-08T17:33:17;31.63;;;14.63;;
75112;SDS011;63692;47.338;8.520;2022-12-08T17:35:46;29.70;;;14.95;;
75112;SDS011;63692;47.338;8.520;2022-12-08T17:38:13;26.67;;;14.80;;
75112;SDS011;63692;47.338;8.520;2022-12-08T17:40:39;26.65;;;13.43;;
75112;SDS011;63692;47.338;8.520;2022-12-08T17:43:04;30.63;;;13.95;;
75112;SDS011;63692;47.338;8.520;2022-12-08T17:47:58;27.48;;;13.98;;
75112;SDS011;63692;47.338;8.520;2022-12-08T17:50:24;28.70;;;14.63;;
75112;SDS011;63692;47.338;8.520;2022-12-08T17:52:50;30.08;;;14.95;;
75112;SDS011;63692;47.338;8.520;2022-12-08T17:55:15;26.08;;;13.88;;
75112;SDS011;63692;47.338;8.520;2022-12-08T17:57:41;26.80;;;14.32;;
75112;SDS011;63692;47.338;8.520;2022-12-08T18:00:09;28.90;;;14.48;;
75112;SDS011;63692;47.338;8.520;2022-12-08T18:02:35;25.98;;;13.70;;
75112;SDS011;63692;47.338;8.520;2022-12-08T18:05:02;32.15;;;15.30;;
75112;SDS011;63692;47.338;8.520;2022-12-08T18:07:28;29.17;;;14.13;;
75112;SDS011;63692;47.338;8.520;2022-12-08T18:09:54;26.60;;;13.52;;
75112;SDS011;63692;47.338;8.520;2022-12-08T18:12:19;25.67;;;14.50;;
75112;SDS011;63692;47.338;8.520;2022-12-08T18:17:13;28.42;;;13.15;;
75112;SDS011;63692;47.338;8.520;2022-12-08T18:19:39;31.17;;;14.23;;
75112;SDS011;63692;47.338;8.520;2022-12-08T18:22:04;28.35;;;14.55;;
75112;SDS011;63692;47.338;8.520;2022-12-08T18:24:30;25.60;;;13.50;;
75112;SDS011;63692;47.338;8.520;2022-12-08T18:26:56;28.98;;;14.32;;
75112;SDS011;63692;47.338;8.520;2022-12-08T18:29:22;29.13;;;14.20;;
75112;SDS011;63692;47.338;8.520;2022-12-08T18:31:48;28.25;;;13.30;;
75112;SDS011;63692;47.338;8.520;2022-12-08T18:34:14;27.27;;;13.15;;
75112;SDS011;63692;47.338;8.520;2022-12-08T18:36:43;29.88;;;14.40;;
75112;SDS011;63692;47.338;8.520;2022-12-08T18:41:37;26.98;;;14.07;;
75112;SDS011;63692;47.338;8.520;2022-12-08T18:44:02;25.85;;;14.10;;
75112;SDS011;63692;47.338;8.520;2022-12-08T18:46:28;27.90;;;14.35;;
75112;SDS011;63692;47.338;8.520;2022-12-08T18:48:54;31.75;;;14.50;;
75112;SDS011;63692;47.338;8.520;2022-12-08T18:51:20;27.83;;;13.85;;
75112;SDS011;63692;47.338;8.520;2022-12-08T18:53:47;30.77;;;14.73;;
75112;SDS011;63692;47.338;8.520;2022-12-08T18:58:55;26.80;;;14.20;;
75112;SDS011;63692;47.338;8.520;2022-12-08T19:01:22;27.23;;;14.57;;
75112;SDS011;63692;47.338;8.520;2022-12-08T19:03:48;29.55;;;14.35;;
75112;SDS011;63692;47.338;8.520;2022-12-08T19:06:14;28.38;;;13.82;;
75112;SDS011;63692;47.338;8.520;2022-12-08T19:08:40;26.85;;;13.88;;
75112;SDS011;63692;47.338;8.520;2022-12-08T19:11:05;29.20;;;14.43;;
75112;SDS011;63692;47.338;8.520;2022-12-08T19:13:45;28.38;;;14.48;;
75112;SDS011;63692;47.338;8.520;2022-12-08T19:16:11;27.60;;;14.25;;
75112;SDS011;63692;47.338;8.520;2022-12-08T19:18:36;28.88;;;15.18;;
75112;SDS011;63692;47.338;8.520;2022-12-08T19:23:31;27.27;;;14.27;;
75112;SDS011;63692;47.338;8.520;2022-12-08T19:25:57;29.23;;;15.18;;
75112;SDS011;63692;47.338;8.520;2022-12-08T19:28:23;27.35;;;14.23;;
75112;SDS011;63692;47.338;8.520;2022-12-08T19:30:48;25.75;;;14.02;;
75112;SDS011;63692;47.338;8.520;2022-12-08T19:33:14;27.98;;;14.32;;
75112;SDS011;63692;47.338;8.520;2022-12-08T19:35:39;28.45;;;14.80;;
75112;SDS011;63692;47.338;8.520;2022-12-08T19:38:05;27.77;;;14.60;;
75112;SDS011;63692;47.338;8.520;2022-12-08T19:40:31;27.50;;;15.05;;
75112;SDS011;63692;47.338;8.520;2022-12-08T19:43:16;29.15;;;15.15;;
75112;SDS011;63692;47.338;8.520;2022-12-08T19:48:29;30.90;;;16.67;;
75112;SDS011;63692;47.338;8.520;2022-12-08T19:50:55;34.70;;;16.52;;
75112;SDS011;63692;47.338;8.520;2022-12-08T19:53:20;31.15;;;15.95;;
75112;SDS011;63692;47.338;8.520;2022-12-08T19:55:48;31.02;;;15.20;;
75112;SDS011;63692;47.338;8.520;2022-12-08T19:58:14;29.23;;;14.95;;
75112;SDS011;63692;47.338;8.520;2022-12-08T20:00:40;30.38;;;15.48;;
75112;SDS011;63692;47.338;8.520;2022-12-08T20:03:09;32.28;;;15.68;;
75112;SDS011;63692;47.338;8.520;2022-12-08T20:05:38;32.00;;;15.70;;
75112;SDS011;63692;47.338;8.520;2022-12-08T20:08:04;34.65;;;16.63;;
75112;SDS011;63692;47.338;8.520;2022-12-08T20:10:31;32.42;;;17.13;;
75112;SDS011;63692;47.338;8.520;2022-12-08T20:12:59;33.33;;;15.40;;
75112;SDS011;63692;47.338;8.520;2022-12-08T20:15:44;31.65;;;15.60;;
75112;SDS011;63692;47.338;8.520;2022-12-08T20:18:11;34.47;;;17.33;;
75112;SDS011;63692;47.338;8.520;2022-12-08T20:20:39;33.20;;;17.08;;
75112;SDS011;63692;47.338;8.520;2022-12-08T20:23:06;30.05;;;15.30;;
75112;SDS011;63692;47.338;8.520;2022-12-08T20:25:32;31.00;;;15.55;;
75112;SDS011;63692;47.338;8.520;2022-12-08T20:27:58;36.10;;;16.65;;
75112;SDS011;63692;47.338;8.520;2022-12-08T20:30:24;26.33;;;15.07;;
75112;SDS011;63692;47.338;8.520;2022-12-08T20:32:49;28.95;;;15.23;;
75112;SDS011;63692;47.338;8.520;2022-12-08T20:35:15;29.90;;;14.77;;
75112;SDS011;63692;47.338;8.520;2022-12-08T20:37:41;30.95;;;15.90;;
75112;SDS011;63692;47.338;8.520;2022-12-08T20:42:34;28.73;;;14.90;;
75112;SDS011;63692;47.338;8.520;2022-12-08T20:45:00;30.75;;;15.20;;
75112;SDS011;63692;47.338;8.520;2022-12-08T20:47:25;29.33;;;14.98;;
75112;SDS011;63692;47.338;8.520;2022-12-08T20:49:51;29.80;;;15.70;;
75112;SDS011;63692;47.338;8.520;2022-12-08T20:52:16;28.38;;;14.85;;
75112;SDS011;63692;47.338;8.520;2022-12-08T20:54:42;28.75;;;14.75;;
75112;SDS011;63692;47.338;8.520;2022-12-08T20:57:08;29.15;;;15.13;;
75112;SDS011;63692;47.338;8.520;2022-12-08T20:59:33;30.23;;;15.48;;
75112;SDS011;63692;47.338;8.520;2022-12-08T21:01:59;30.13;;;15.98;;
75112;SDS011;63692;47.338;8.520;2022-12-08T21:04:25;34.03;;;15.95;;
75112;SDS011;63692;47.338;8.520;2022-12-08T21:06:50;31.52;;;15.32;;
75112;SDS011;63692;47.338;8.520;2022-12-08T21:09:16;30.17;;;15.68;;
75112;SDS011;63692;47.338;8.520;2022-12-08T21:11:42;29.13;;;15.80;;
75112;SDS011;63692;47.338;8.520;2022-12-08T21:14:08;26.20;;;13.85;;
75112;SDS011;63692;47.338;8.520;2022-12-08T21:16:34;28.85;;;14.45;;
75112;SDS011;63692;47.338;8.520;2022-12-08T21:18:59;25.48;;;14.02;;
75112;SDS011;63692;47.338;8.520;2022-12-08T21:21:25;26.88;;;13.52;;
75112;SDS011;63692;47.338;8.520;2022-12-08T21:23:50;25.80;;;14.60;;
75112;SDS011;63692;47.338;8.520;2022-12-08T21:26:17;24.50;;;13.60;;
75112;SDS011;63692;47.338;8.520;2022-12-08T21:28:44;26.35;;;13.38;;
75112;SDS011;63692;47.338;8.520;2022-12-08T21:31:12;24.67;;;13.40;;
75112;SDS011;63692;47.338;8.520;2022-12-08T21:33:39;25.73;;;13.95;;
75112;SDS011;63692;47.338;8.520;2022-12-08T21:36:06;22.88;;;12.82;;
75112;SDS011;63692;47.338;8.520;2022-12-08T21:38:35;28.33;;;14.43;;
75112;SDS011;63692;47.338;8.520;2022-12-08T21:41:07;26.15;;;14.95;;
75112;SDS011;63692;47.338;8.520;2022-12-08T21:43:34;26.00;;;14.23;;
75112;SDS011;63692;47.338;8.520;2022-12-08T21:46:01;25.70;;;14.18;;
75112;SDS011;63692;47.338;8.520;2022-12-08T21:48:27;28.48;;;13.55;;
75112;SDS011;63692;47.338;8.520;2022-12-08T21:50:53;28.13;;;14.60;;
75112;SDS011;63692;47.338;8.520;2022-12-08T21:53:20;25.95;;;14.00;;
75112;SDS011;63692;47.338;8.520;2022-12-08T21:55:46;27.08;;;13.88;;
75112;SDS011;63692;47.338;8.520;2022-12-08T21:58:12;28.60;;;14.10;;
75112;SDS011;63692;47.338;8.520;2022-12-08T22:00:38;27.42;;;14.55;;
75112;SDS011;63692;47.338;8.520;2022-12-08T22:03:04;26.20;;;14.23;;
75112;SDS011;63692;47.338;8.520;2022-12-08T22:05:30;27.95;;;14.38;;
75112;SDS011;63692;47.338;8.520;2022-12-08T22:07:56;28.45;;;15.00;;
75112;SDS011;63692;47.338;8.520;2022-12-08T22:10:22;27.42;;;14.75;;
75112;SDS011;63692;47.338;8.520;2022-12-08T22:12:48;31.83;;;15.75;;
75112;SDS011;63692;47.338;8.520;2022-12-08T22:15:14;24.92;;;14.35;;
75112;SDS011;63692;47.338;8.520;2022-12-08T22:17:40;25.33;;;14.05;;
75112;SDS011;63692;47.338;8.520;2022-12-08T22:20:08;29.13;;;14.60;;
75112;SDS011;63692;47.338;8.520;2022-12-08T22:22:37;26.13;;;14.77;;
75112;SDS011;63692;47.338;8.520;2022-12-08T22:25:03;27.63;;;13.68;;
75112;SDS011;63692;47.338;8.520;2022-12-08T22:27:29;26.63;;;14.27;;
75112;SDS011;63692;47.338;8.520;2022-12-08T22:29:56;27.38;;;15.45;;
75112;SDS011;63692;47.338;8.520;2022-12-08T22:32:22;28.50;;;14.93;;
75112;SDS011;63692;47.338;8.520;2022-12-08T22:34:48;30.73;;;15.57;;
75112;SDS011;63692;47.338;8.520;2022-12-08T22:37:13;30.48;;;15.43;;
75112;SDS011;63692;47.338;8.520;2022-12-08T22:39:39;25.63;;;15.07;;
75112;SDS011;63692;47.338;8.520;2022-12-08T22:42:04;26.15;;;14.27;;
75112;SDS011;63692;47.338;8.520;2022-12-08T22:44:30;29.88;;;15.13;;
75112;SDS011;63692;47.338;8.520;2022-12-08T22:46:55;27.98;;;15.15;;
75112;SDS011;63692;47.338;8.520;2022-12-08T22:49:24;27.48;;;15.02;;
75112;SDS011;63692;47.338;8.520;2022-12-08T22:51:50;28.65;;;15.23;;
75112;SDS011;63692;47.338;8.520;2022-12-08T22:54:16;27.58;;;15.05;;
75112;SDS011;63692;47.338;8.520;2022-12-08T22:56:42;29.05;;;15.40;;
75112;SDS011;63692;47.338;8.520;2022-12-08T22:59:08;26.50;;;14.95;;
75112;SDS011;63692;47.338;8.520;2022-12-08T23:01:34;26.98;;;15.30;;
75112;SDS011;63692;47.338;8.520;2022-12-08T23:03:59;28.00;;;14.55;;
75112;SDS011;63692;47.338;8.520;2022-12-08T23:06:26;28.05;;;15.13;;
75112;SDS011;63692;47.338;8.520;2022-12-08T23:08:52;28.08;;;14.60;;
75112;SDS011;63692;47.338;8.520;2022-12-08T23:11:18;25.00;;;14.23;;
75112;SDS011;63692;47.338;8.520;2022-12-08T23:13:46;27.88;;;14.85;;
75112;SDS011;63692;47.338;8.520;2022-12-08T23:16:12;26.23;;;14.30;;
75112;SDS011;63692;47.338;8.520;2022-12-08T23:18:41;26.50;;;14.73;;
75112;SDS011;63692;47.338;8.520;2022-12-08T23:21:10;28.70;;;15.20;;
75112;SDS011;63692;47.338;8.520;2022-12-08T23:23:37;30.23;;;15.45;;
75112;SDS011;63692;47.338;8.520;2022-12-08T23:26:03;28.52;;;15.48;;
75112;SDS011;63692;47.338;8.520;2022-12-08T23:28:36;26.48;;;15.38;;
75112;SDS011;63692;47.338;8.520;2022-12-08T23:31:05;27.83;;;15.55;;
75112;SDS011;63692;47.338;8.520;2022-12-08T23:33:32;30.23;;;15.35;;
75112;SDS011;63692;47.338;8.520;2022-12-08T23:35:57;26.83;;;15.55;;
75112;SDS011;63692;47.338;8.520;2022-12-08T23:38:23;30.20;;;16.17;;
75112;SDS011;63692;47.338;8.520;2022-12-08T23:40:49;28.92;;;15.70;;